createdAt,value
2022-12-04T00:00:27.427Z,87.75
2022-12-04T00:03:31.579Z,87.69
2022-12-04T00:06:35.654Z,87.70
2022-12-04T00:09:39.671Z,87.69
2022-12-04T00:12:43.693Z,87.78
2022-12-04T00:15:48.003Z,87.75
2022-12-04T00:18:52.016Z,87.68
2022-12-04T00:21:56.027Z,87.76
2022-12-04T00:25:00.042Z,87.72
2022-12-04T00:28:03.999Z,87.60
2022-12-04T00:31:08.627Z,87.64
2022-12-04T00:34:13.002Z,87.73
2022-12-04T00:37:17.016Z,87.64
2022-12-04T00:40:21.079Z,87.76
2022-12-04T00:43:25.288Z,87.71
2022-12-04T00:46:29.900Z,87.73
2022-12-04T00:49:33.991Z,87.76
2022-12-04T00:52:38.004Z,87.74
2022-12-04T00:55:42.427Z,87.54
2022-12-04T00:58:46.935Z,87.41
2022-12-04T01:01:50.864Z,87.62
2022-12-04T01:04:54.779Z,87.68
2022-12-04T01:07:58.959Z,87.65
2022-12-04T01:11:06.186Z,87.69
2022-12-04T01:14:10.193Z,87.70
2022-12-04T01:17:14.221Z,87.63
2022-12-04T01:20:18.644Z,87.81
2022-12-04T01:23:22.565Z,87.69
2022-12-04T01:26:27.388Z,87.55
2022-12-04T01:29:31.300Z,87.43
2022-12-04T01:32:35.230Z,87.42
2022-12-04T01:35:39.310Z,87.52
2022-12-04T01:38:43.248Z,87.56
2022-12-04T01:41:47.440Z,87.47
2022-12-04T01:45:04.969Z,87.44
2022-12-04T01:48:11.850Z,87.38
2022-12-04T01:51:17.962Z,87.68
2022-12-04T01:54:28.870Z,87.54
2022-12-04T01:57:33.775Z,87.46
2022-12-04T02:00:37.837Z,87.48
2022-12-04T02:03:41.853Z,87.63
2022-12-04T02:06:45.863Z,87.53
2022-12-04T02:09:56.129Z,87.29
2022-12-04T02:13:05.707Z,87.48
2022-12-04T02:16:14.528Z,87.31
2022-12-04T02:19:34.171Z,87.29
2022-12-04T02:22:47.855Z,87.75
2022-12-04T02:26:00.695Z,87.90
2022-12-04T02:29:08.971Z,87.74
2022-12-04T02:32:20.219Z,87.69
2022-12-04T02:35:28.236Z,87.45
2022-12-04T02:38:34.705Z,87.14
2022-12-04T02:41:42.303Z,87.45
2022-12-04T02:44:48.583Z,87.75
2022-12-04T02:47:53.552Z,87.81
2022-12-04T02:50:59.362Z,87.91
2022-12-04T02:54:05.559Z,87.85
2022-12-04T02:57:13.099Z,87.63
2022-12-04T03:00:18.696Z,87.48
2022-12-04T03:03:24.386Z,87.54
2022-12-04T03:06:30.308Z,87.82
2022-12-04T03:09:37.059Z,88.01
2022-12-04T03:12:43.683Z,88.01
2022-12-04T03:15:49.426Z,87.79
2022-12-04T03:18:56.315Z,87.73
2022-12-04T03:22:02.330Z,87.74
2022-12-04T03:25:07.612Z,87.78
2022-12-04T03:28:15.169Z,87.83
2022-12-04T03:31:23.471Z,87.79
2022-12-04T03:34:29.495Z,87.88
2022-12-04T03:37:36.526Z,87.91
2022-12-04T03:40:42.997Z,87.91
2022-12-04T03:43:50.352Z,87.76
2022-12-04T03:46:56.783Z,87.78
2022-12-04T03:50:02.782Z,87.83
2022-12-04T03:53:10.934Z,87.87
2022-12-04T03:56:17.026Z,87.87
2022-12-04T03:59:24.588Z,87.94
2022-12-04T04:02:32.439Z,87.96
2022-12-04T04:05:38.527Z,87.77
2022-12-04T04:08:45.947Z,87.76
2022-12-04T04:11:50.819Z,87.85
2022-12-04T04:15:14.760Z,87.86
2022-12-04T04:18:36.498Z,87.84
2022-12-04T04:21:59.961Z,87.71
2022-12-04T04:25:06.262Z,87.83
2022-12-04T04:28:23.756Z,87.82
2022-12-04T04:31:35.589Z,87.91
2022-12-04T04:34:42.534Z,87.86
2022-12-04T04:37:52.997Z,87.83
2022-12-04T04:40:59.831Z,87.88
2022-12-04T04:44:10.345Z,88.01
2022-12-04T04:47:17.535Z,88.01
2022-12-04T04:50:22.790Z,87.88
2022-12-04T04:53:30.367Z,87.90
2022-12-04T04:56:40.526Z,87.83
2022-12-04T04:59:44.540Z,87.96
2022-12-04T05:02:50.523Z,87.97
2022-12-04T05:05:54.704Z,88.00
2022-12-04T05:08:58.665Z,87.84
2022-12-04T05:12:02.561Z,87.69
2022-12-04T05:15:07.640Z,87.78
2022-12-04T05:18:11.591Z,87.74
2022-12-04T05:21:17.345Z,87.67
2022-12-04T05:24:21.358Z,87.75
2022-12-04T05:27:25.781Z,87.76
2022-12-04T05:30:29.793Z,87.60
2022-12-04T05:33:33.705Z,87.62
2022-12-04T05:36:37.683Z,87.70
2022-12-04T05:39:41.656Z,87.68
2022-12-04T05:42:45.642Z,87.68
2022-12-04T05:45:49.555Z,87.83
2022-12-04T05:48:53.479Z,87.94
2022-12-04T05:51:57.479Z,87.97
2022-12-04T05:55:01.490Z,87.65
2022-12-04T05:58:05.608Z,87.64
2022-12-04T06:01:13.478Z,87.62
2022-12-04T06:04:17.627Z,87.62
2022-12-04T06:07:21.568Z,87.65
2022-12-04T06:10:25.493Z,87.72
2022-12-04T06:13:29.463Z,87.64
2022-12-04T06:16:35.207Z,87.58
2022-12-04T06:19:40.460Z,87.47
2022-12-04T06:22:44.472Z,87.66
2022-12-04T06:25:48.486Z,87.60
2022-12-04T06:28:54.176Z,87.64
2022-12-04T06:31:58.520Z,87.60
2022-12-04T06:35:03.107Z,87.61
2022-12-04T06:38:08.224Z,87.70
2022-12-04T06:41:13.469Z,87.66
2022-12-04T06:44:17.628Z,87.59
2022-12-04T06:47:21.535Z,87.80
2022-12-04T06:50:25.508Z,87.78
2022-12-04T06:53:30.791Z,87.70
2022-12-04T06:56:34.996Z,87.51
2022-12-04T06:59:39.326Z,87.42
2022-12-04T07:02:43.258Z,87.61
2022-12-04T07:05:47.311Z,87.71
2022-12-04T07:08:52.703Z,87.89
2022-12-04T07:11:56.672Z,87.66
2022-12-04T07:15:00.633Z,87.72
2022-12-04T07:18:05.212Z,87.62
2022-12-04T07:21:10.391Z,87.74
2022-12-04T07:24:16.039Z,87.66
2022-12-04T07:27:19.973Z,87.77
2022-12-04T07:30:24.353Z,87.66
2022-12-04T07:33:28.350Z,87.87
2022-12-04T07:36:32.291Z,87.72
2022-12-04T07:39:36.216Z,87.71
2022-12-04T07:42:40.184Z,87.72
2022-12-04T07:45:44.245Z,87.79
2022-12-04T07:48:48.316Z,87.77
2022-12-04T07:51:52.258Z,87.85
2022-12-04T07:54:56.238Z,87.86
2022-12-04T07:58:00.146Z,87.67
2022-12-04T08:01:11.478Z,87.75
2022-12-04T08:04:15.491Z,87.65
2022-12-04T08:07:19.601Z,87.70
2022-12-04T08:10:23.533Z,87.83
2022-12-04T08:13:27.413Z,87.68
2022-12-04T08:16:32.732Z,87.68
2022-12-04T08:19:36.764Z,87.77
2022-12-04T08:22:40.695Z,87.67
2022-12-04T08:25:44.672Z,87.69
2022-12-04T08:28:49.092Z,87.70
2022-12-04T08:31:53.367Z,87.82
2022-12-04T08:34:57.314Z,87.75
2022-12-04T08:38:01.237Z,87.90
2022-12-04T08:41:06.380Z,87.70
2022-12-04T08:44:10.408Z,87.83
2022-12-04T08:47:15.057Z,87.81
2022-12-04T08:50:18.981Z,87.78
2022-12-04T08:53:23.411Z,87.82
2022-12-04T08:56:28.076Z,87.82
2022-12-04T08:59:32.090Z,87.79
2022-12-04T09:02:36.131Z,87.73
2022-12-04T09:05:40.116Z,87.78
2022-12-04T09:08:44.285Z,87.73
2022-12-04T09:11:48.452Z,87.89
2022-12-04T09:14:52.569Z,88.00
2022-12-04T09:17:56.791Z,88.00
2022-12-04T09:21:01.946Z,88.01
2022-12-04T09:24:06.168Z,87.95
2022-12-04T09:27:14.730Z,87.95
2022-12-04T09:30:19.494Z,88.05
2022-12-04T09:33:23.813Z,87.91
2022-12-04T09:36:27.888Z,88.00
2022-12-04T09:39:32.047Z,87.97
2022-12-04T09:42:44.194Z,87.95
2022-12-04T09:45:51.723Z,88.08
2022-12-04T09:48:58.182Z,88.17
2022-12-04T09:52:32.005Z,88.19
2022-12-04T09:55:42.494Z,88.03
2022-12-04T09:58:51.910Z,88.01
2022-12-04T10:02:03.614Z,88.10
2022-12-04T10:05:20.252Z,88.08
2022-12-04T10:08:30.084Z,88.25
2022-12-04T10:11:47.380Z,88.29
2022-12-04T10:15:05.544Z,87.95
2022-12-04T10:18:25.543Z,88.11
2022-12-04T10:21:43.691Z,88.21
2022-12-04T10:24:53.127Z,88.16
2022-12-04T10:28:03.998Z,87.90
2022-12-04T10:31:14.967Z,87.77
2022-12-04T10:34:24.804Z,87.87
2022-12-04T10:37:31.206Z,88.11
2022-12-04T10:40:38.940Z,88.25
2022-12-04T10:43:46.908Z,88.29
2022-12-04T10:46:54.879Z,88.36
2022-12-04T10:50:04.249Z,88.16
2022-12-04T10:53:13.849Z,87.96
2022-12-04T10:56:22.078Z,88.22
2022-12-04T10:59:29.785Z,88.24
2022-12-04T11:02:39.004Z,88.27
2022-12-04T11:05:55.486Z,88.26
2022-12-04T11:09:02.910Z,88.32
2022-12-04T11:12:18.397Z,88.00
2022-12-04T11:15:24.623Z,88.12
2022-12-04T11:18:33.844Z,88.02
2022-12-04T11:21:41.159Z,88.00
2022-12-04T11:24:54.239Z,87.95
2022-12-04T11:28:03.626Z,87.92
2022-12-04T11:31:12.355Z,88.00
2022-12-04T11:34:22.971Z,88.12
2022-12-04T11:37:33.800Z,88.04
2022-12-04T11:57:55.917Z,87.72
2022-12-04T12:01:19.695Z,87.45
2022-12-04T12:04:39.476Z,87.31
2022-12-04T12:08:01.889Z,87.53
2022-12-04T12:11:18.940Z,87.67
2022-12-04T12:14:26.674Z,88.06
2022-12-04T12:17:39.789Z,87.74
2022-12-04T12:20:57.716Z,87.84
2022-12-04T12:24:26.173Z,87.77
2022-12-04T12:27:44.852Z,87.78
2022-12-04T12:31:07.131Z,87.69
2022-12-04T12:34:16.699Z,87.55
2022-12-04T12:37:29.146Z,87.72
2022-12-04T12:40:41.185Z,87.89
2022-12-04T12:43:51.772Z,87.79
2022-12-04T12:47:03.309Z,87.78
2022-12-04T12:50:16.559Z,87.78
2022-12-04T12:53:28.024Z,87.64
2022-12-04T12:56:44.780Z,87.67
2022-12-04T12:59:58.608Z,87.66
2022-12-04T13:03:08.985Z,87.55
2022-12-04T13:06:19.427Z,87.67
2022-12-04T13:09:30.018Z,87.58
2022-12-04T13:12:47.028Z,87.62
2022-12-04T13:15:58.023Z,87.47
2022-12-04T13:19:13.650Z,87.60
2022-12-04T13:22:28.463Z,87.44
2022-12-04T13:25:49.232Z,87.48
2022-12-04T13:29:02.825Z,87.59
2022-12-04T13:32:27.399Z,87.41
2022-12-04T13:35:50.106Z,87.32
2022-12-04T13:39:21.974Z,87.49
2022-12-04T13:42:30.139Z,87.42
2022-12-04T13:45:36.578Z,87.50
2022-12-04T13:48:43.958Z,87.48
2022-12-04T13:51:50.874Z,87.38
2022-12-04T13:55:01.456Z,87.32
2022-12-04T13:58:30.290Z,87.34
2022-12-04T14:01:42.151Z,87.13
2022-12-04T14:04:54.881Z,87.08
2022-12-04T14:08:08.274Z,87.15
2022-12-04T14:11:18.394Z,87.18
2022-12-04T14:14:31.009Z,87.18
2022-12-04T14:17:38.738Z,87.21
2022-12-04T14:20:45.786Z,87.10
2022-12-04T14:23:52.462Z,87.14
2022-12-04T14:27:11.582Z,86.97
2022-12-04T14:30:23.290Z,86.96
2022-12-04T14:33:30.862Z,87.00
2022-12-04T14:36:42.832Z,86.86
2022-12-04T14:39:50.218Z,86.91
2022-12-04T14:42:56.909Z,86.99
2022-12-04T14:46:08.406Z,87.03
2022-12-04T14:49:29.340Z,86.90
2022-12-04T14:52:44.108Z,86.97
2022-12-04T14:56:04.633Z,86.92
2022-12-04T14:59:19.424Z,86.98
2022-12-04T15:02:34.749Z,86.86
2022-12-04T15:05:40.227Z,86.99
2022-12-04T15:08:53.485Z,87.03
2022-12-04T15:12:19.304Z,86.98
2022-12-04T15:15:27.912Z,86.91
2022-12-04T15:18:39.296Z,86.94
2022-12-04T15:21:45.899Z,86.81
2022-12-04T15:24:51.845Z,86.83
2022-12-04T15:28:06.748Z,86.84
2022-12-04T15:31:18.910Z,86.86
2022-12-04T15:34:31.596Z,86.89
2022-12-04T15:37:38.242Z,86.90
2022-12-04T15:40:52.974Z,86.84
2022-12-04T15:43:58.627Z,86.89
2022-12-04T15:47:17.791Z,86.93
2022-12-04T15:50:27.171Z,86.89
2022-12-04T15:53:37.231Z,86.77
2022-12-04T15:56:42.934Z,86.77
2022-12-04T15:59:53.727Z,86.73
2022-12-04T16:03:00.331Z,86.76
2022-12-04T16:06:18.328Z,86.84
2022-12-04T16:09:26.057Z,86.81
2022-12-04T16:12:33.320Z,86.82
2022-12-04T16:15:41.616Z,87.04
2022-12-04T16:18:48.634Z,86.93
2022-12-04T16:21:54.263Z,86.93
2022-12-04T16:25:00.087Z,86.78
2022-12-04T16:28:06.286Z,86.94
2022-12-04T16:31:14.014Z,86.90
2022-12-04T16:34:19.631Z,86.86
2022-12-04T16:37:25.929Z,86.73
2022-12-04T16:40:29.862Z,86.78
2022-12-04T16:43:35.465Z,86.80
2022-12-04T16:46:41.192Z,86.99
2022-12-04T16:49:49.429Z,86.82
2022-12-04T16:52:55.607Z,86.72
2022-12-04T16:56:01.041Z,86.69
2022-12-04T16:59:11.574Z,86.71
2022-12-04T17:02:23.327Z,86.72
2022-12-04T17:05:30.283Z,86.74
2022-12-04T17:08:35.732Z,86.68
2022-12-04T17:11:42.033Z,86.76
2022-12-04T17:14:46.214Z,86.84
2022-12-04T17:17:52.173Z,86.71
2022-12-04T17:20:58.749Z,86.70
2022-12-04T17:24:04.619Z,86.75
2022-12-04T17:27:14.356Z,86.74
2022-12-04T17:30:20.253Z,86.55
2022-12-04T17:33:26.203Z,86.62
2022-12-04T17:36:31.817Z,86.74
2022-12-04T17:39:37.571Z,86.61
2022-12-04T17:42:43.653Z,86.61
2022-12-04T17:45:49.100Z,86.72
2022-12-04T17:48:56.544Z,86.52
2022-12-04T17:52:02.288Z,86.35
2022-12-04T17:55:09.482Z,86.64
2022-12-04T17:58:14.963Z,86.58
2022-12-04T18:01:23.221Z,86.48
2022-12-04T18:04:28.931Z,86.70
2022-12-04T18:07:34.718Z,86.72
2022-12-04T18:10:41.584Z,86.61
2022-12-04T18:13:47.004Z,86.51
2022-12-04T18:16:54.646Z,86.55
2022-12-04T18:20:04.478Z,86.44
2022-12-04T18:23:10.723Z,86.59
2022-12-04T18:26:19.140Z,86.52
2022-12-04T18:29:27.115Z,86.59
2022-12-04T18:32:33.004Z,86.73
2022-12-04T18:35:38.501Z,86.42
2022-12-04T18:38:44.409Z,86.47
2022-12-04T18:41:50.828Z,86.52
2022-12-04T18:44:56.839Z,86.52
2022-12-04T18:48:02.248Z,86.54
2022-12-04T18:51:21.945Z,86.73
2022-12-04T18:54:27.825Z,86.66
2022-12-04T18:57:36.038Z,86.72
2022-12-04T19:00:42.033Z,86.59
2022-12-04T19:03:48.662Z,86.73
2022-12-04T19:06:56.069Z,86.77
2022-12-04T19:10:10.765Z,86.73
2022-12-04T19:13:21.630Z,86.82
2022-12-04T19:16:28.654Z,86.82
2022-12-04T19:19:34.616Z,86.76
2022-12-04T19:22:43.263Z,86.76
2022-12-04T19:25:57.241Z,86.93
2022-12-04T19:29:03.895Z,87.00
2022-12-04T19:32:10.991Z,86.80
2022-12-04T19:35:16.796Z,86.90
2022-12-04T19:38:22.664Z,86.84
2022-12-04T19:41:30.602Z,86.88
2022-12-04T19:44:53.265Z,86.91
2022-12-04T19:47:58.890Z,86.94
2022-12-04T19:51:09.304Z,87.09
2022-12-04T19:54:16.350Z,87.05
2022-12-04T19:57:22.738Z,86.98
2022-12-04T20:00:28.459Z,86.86
2022-12-04T20:03:35.693Z,87.04
2022-12-04T20:06:43.345Z,87.00
2022-12-04T20:09:52.640Z,87.03
2022-12-04T20:13:00.647Z,86.88
2022-12-04T20:16:12.585Z,87.02
2022-12-04T20:19:20.830Z,87.00
2022-12-04T20:22:26.559Z,87.11
2022-12-04T20:25:32.107Z,87.17
2022-12-04T20:28:38.729Z,87.03
2022-12-04T20:31:47.267Z,87.01
2022-12-04T20:34:53.054Z,87.12
2022-12-04T20:37:58.604Z,87.27
2022-12-04T20:41:06.172Z,87.19
2022-12-04T20:44:15.435Z,87.11
2022-12-04T20:47:21.309Z,86.91
2022-12-04T20:50:28.516Z,86.95
2022-12-04T20:53:34.030Z,86.96
2022-12-04T20:56:40.302Z,87.09
2022-12-04T20:59:45.772Z,87.09
2022-12-04T21:02:51.372Z,86.92
2022-12-04T21:05:56.867Z,86.95
2022-12-04T21:09:05.987Z,87.09
2022-12-04T21:12:25.901Z,87.29
2022-12-04T21:15:48.858Z,87.24
2022-12-04T21:18:54.284Z,87.25
2022-12-04T21:21:59.961Z,87.22
2022-12-04T21:25:08.646Z,87.38
2022-12-04T21:28:14.187Z,87.26
2022-12-04T21:31:19.708Z,87.46
2022-12-04T21:34:25.336Z,87.26
2022-12-04T21:37:30.763Z,87.08
2022-12-04T21:40:42.133Z,87.07
2022-12-04T21:43:48.180Z,87.12
2022-12-04T21:46:53.772Z,87.26
2022-12-04T21:49:59.502Z,87.40
2022-12-04T21:53:05.214Z,87.15
2022-12-04T21:56:11.608Z,87.01
2022-12-04T21:59:15.825Z,87.34
2022-12-04T22:02:21.560Z,87.45
2022-12-04T22:05:27.231Z,87.50
2022-12-04T22:08:35.592Z,87.59
2022-12-04T22:11:42.477Z,87.42
2022-12-04T22:14:47.974Z,87.72
2022-12-04T22:17:53.880Z,87.55
2022-12-04T22:20:59.379Z,87.61
2022-12-04T22:24:06.151Z,87.52
2022-12-04T22:27:15.093Z,87.72
2022-12-04T22:30:20.638Z,87.56
2022-12-04T22:33:26.288Z,87.62
2022-12-04T22:36:33.854Z,87.74
2022-12-04T22:39:39.332Z,87.63
2022-12-04T22:42:44.983Z,87.29
2022-12-04T22:45:51.559Z,87.38
2022-12-04T22:48:57.251Z,87.28
2022-12-04T22:52:02.683Z,87.25
2022-12-04T22:55:09.561Z,87.58
2022-12-04T22:58:14.988Z,87.63
2022-12-04T23:01:22.972Z,87.77
2022-12-04T23:04:29.419Z,87.77
2022-12-04T23:07:35.044Z,87.77
2022-12-04T23:10:41.117Z,87.52
2022-12-04T23:13:50.914Z,87.70
2022-12-04T23:16:56.801Z,87.82
2022-12-04T23:20:02.531Z,87.82
2022-12-04T23:23:08.081Z,87.81
2022-12-04T23:26:16.288Z,87.93
2022-12-04T23:29:52.663Z,87.95
2022-12-04T23:32:47.285Z,87.96
2022-12-04T23:35:55.777Z,87.98
2022-12-04T23:39:01.428Z,87.78
2022-12-04T23:42:07.133Z,87.97
2022-12-04T23:45:13.464Z,88.09
2022-12-04T23:48:17.460Z,87.94
2022-12-04T23:51:22.963Z,88.14
2022-12-04T23:54:30.403Z,87.88
2022-12-04T23:57:35.952Z,87.74
